createdAt,value
2019-02-17T00:00:34.415Z,45.27
2019-02-17T00:06:07.800Z,44.63
2019-02-17T00:08:39.657Z,46.93
2019-02-17T00:11:16.411Z,51.20
2019-02-17T00:13:45.224Z,47.97
2019-02-17T00:16:14.905Z,44.93
2019-02-17T00:18:44.494Z,51.60
2019-02-17T00:21:13.434Z,47.43
2019-02-17T00:23:52.862Z,44.67
2019-02-17T00:26:21.876Z,48.67
2019-02-17T00:28:59.089Z,51.17
2019-02-17T00:31:21.858Z,51.13
2019-02-17T00:33:50.669Z,46.07
2019-02-17T00:36:20.807Z,48.00
2019-02-17T00:38:52.427Z,52.53
2019-02-17T00:41:24.969Z,49.33
2019-02-17T00:43:56.585Z,49.87
2019-02-17T00:46:26.541Z,48.10
2019-02-17T00:48:57.147Z,48.20
2019-02-17T00:51:45.259Z,48.60
2019-02-17T00:54:17.680Z,50.13
2019-02-17T00:56:46.592Z,49.43
2019-02-17T00:59:15.888Z,49.43
2019-02-17T01:01:45.508Z,49.03
2019-02-17T01:04:18.402Z,46.03
2019-02-17T01:06:44.980Z,47.27
2019-02-17T01:09:13.835Z,48.33
2019-02-17T01:11:42.693Z,47.10
2019-02-17T01:14:13.362Z,49.53
2019-02-17T01:16:43.030Z,50.80
2019-02-17T01:19:15.483Z,45.47
2019-02-17T01:21:44.906Z,46.83
2019-02-17T01:24:23.065Z,45.77
2019-02-17T01:26:53.822Z,46.27
2019-02-17T01:29:24.282Z,47.40
2019-02-17T01:31:54.724Z,47.03
2019-02-17T01:34:23.737Z,45.17
2019-02-17T01:37:03.746Z,46.80
2019-02-17T01:41:07.741Z,45.03
2019-02-17T01:42:03.739Z,45.53
2019-02-17T01:44:51.880Z,45.67
2019-02-17T01:47:27.114Z,45.23
2019-02-17T01:50:15.346Z,46.43
2019-02-17T01:52:44.478Z,43.97
2019-02-17T01:55:13.553Z,42.50
2019-02-17T01:57:42.602Z,44.07
2019-02-17T02:00:21.228Z,43.80
2019-02-17T02:03:00.732Z,42.20
2019-02-17T02:05:28.315Z,41.57
2019-02-17T02:08:18.955Z,42.80
2019-02-17T02:10:49.531Z,40.93
2019-02-17T02:13:52.953Z,44.13
2019-02-17T02:19:24.727Z,42.50
2019-02-17T02:21:41.837Z,38.93
2019-02-17T02:24:13.587Z,40.90
2019-02-17T02:26:53.580Z,40.83
2019-02-17T02:29:23.328Z,40.40
2019-02-17T02:32:11.424Z,40.50
2019-02-17T02:34:49.702Z,40.63
2019-02-17T02:37:18.565Z,37.87
2019-02-17T02:40:10.310Z,39.97
2019-02-17T02:42:48.001Z,39.30
2019-02-17T02:45:22.447Z,38.37
2019-02-17T02:47:57.232Z,36.13
2019-02-17T02:50:23.963Z,35.40
2019-02-17T02:52:54.570Z,37.50
2019-02-17T02:55:44.899Z,35.30
2019-02-17T02:58:15.144Z,35.80
2019-02-17T03:01:04.317Z,35.87
2019-02-17T03:03:50.389Z,33.57
2019-02-17T03:06:25.208Z,33.67
2019-02-17T03:09:16.980Z,34.67
2019-02-17T03:11:45.847Z,32.93
2019-02-17T03:14:21.708Z,33.80
2019-02-17T03:16:50.570Z,32.33
2019-02-17T03:19:21.281Z,32.67
2019-02-17T03:21:51.754Z,33.60
2019-02-17T03:24:24.974Z,32.20
2019-02-17T03:26:57.607Z,30.73
2019-02-17T03:29:30.597Z,31.83
2019-02-17T03:32:00.192Z,30.50
2019-02-17T03:34:29.097Z,32.23
2019-02-17T03:36:58.046Z,31.17
2019-02-17T03:40:35.855Z,29.00
2019-02-17T03:48:54.583Z,28.03
2019-02-17T03:51:41.031Z,26.80
2019-02-17T03:54:09.914Z,26.03
2019-02-17T03:56:59.456Z,26.63
2019-02-17T03:59:28.435Z,26.60
2019-02-17T04:01:57.260Z,28.00
2019-02-17T04:04:48.435Z,26.03
2019-02-17T04:07:28.883Z,25.53
2019-02-17T04:10:05.984Z,24.10
2019-02-17T04:12:38.083Z,25.83
2019-02-17T04:15:07.105Z,23.50
2019-02-17T04:17:38.212Z,25.57
2019-02-17T04:20:10.074Z,23.47
2019-02-17T04:22:39.775Z,23.47
2019-02-17T04:25:39.748Z,24.17
2019-02-17T04:28:32.355Z,23.27
2019-02-17T04:31:17.171Z,22.10
2019-02-17T04:33:47.774Z,23.80
2019-02-17T04:36:43.119Z,23.53
2019-02-17T04:39:39.238Z,22.00
2019-02-17T04:42:08.058Z,21.67
2019-02-17T04:44:40.752Z,22.37
2019-02-17T04:47:11.364Z,20.43
2019-02-17T04:49:53.566Z,21.43
2019-02-17T04:52:40.421Z,19.17
2019-02-17T04:55:10.933Z,19.67
2019-02-17T04:57:47.696Z,18.80
2019-02-17T05:00:39.467Z,19.43
2019-02-17T05:03:04.702Z,19.63
2019-02-17T05:05:38.783Z,19.23
2019-02-17T05:08:07.751Z,19.73
2019-02-17T05:10:38.788Z,18.23
2019-02-17T05:13:22.853Z,18.00
2019-02-17T05:16:12.349Z,19.33
2019-02-17T05:18:48.395Z,19.20
2019-02-17T05:21:17.220Z,17.30
2019-02-17T05:23:48.096Z,18.43
2019-02-17T05:26:18.517Z,19.03
2019-02-17T05:28:51.186Z,16.97
2019-02-17T05:31:20.048Z,16.30
2019-02-17T05:33:52.496Z,17.93
2019-02-17T05:39:09.553Z,17.77
2019-02-17T05:41:39.465Z,17.67
2019-02-17T05:44:15.578Z,17.67
2019-02-17T05:46:48.025Z,17.53
2019-02-17T05:49:20.430Z,17.23
2019-02-17T05:51:57.354Z,15.87
2019-02-17T05:54:33.575Z,16.93
2019-02-17T05:57:14.599Z,17.63
2019-02-17T05:59:43.787Z,16.07
2019-02-17T06:02:30.681Z,16.10
2019-02-17T06:05:10.798Z,16.03
2019-02-17T06:07:41.055Z,14.93
2019-02-17T06:10:10.058Z,14.23
2019-02-17T06:12:54.140Z,15.63
2019-02-17T06:15:29.467Z,15.87
2019-02-17T06:17:58.336Z,13.87
2019-02-17T06:20:34.826Z,16.43
2019-02-17T06:23:20.696Z,15.37
2019-02-17T06:25:57.973Z,16.13
2019-02-17T06:28:27.195Z,14.93
2019-02-17T06:31:13.650Z,14.13
2019-02-17T06:33:40.339Z,14.27
2019-02-17T06:36:04.933Z,14.17
2019-02-17T06:38:41.590Z,15.00
2019-02-17T06:41:10.680Z,16.47
2019-02-17T06:44:04.871Z,15.10
2019-02-17T06:46:38.912Z,14.00
2019-02-17T06:49:13.063Z,13.23
2019-02-17T06:51:43.806Z,12.80
2019-02-17T06:54:12.735Z,13.47
2019-02-17T06:56:49.511Z,13.87
2019-02-17T06:59:41.942Z,14.83
2019-02-17T07:02:11.505Z,12.47
2019-02-17T07:05:01.286Z,13.67
2019-02-17T07:07:30.308Z,12.33
2019-02-17T07:10:17.707Z,13.80
2019-02-17T07:13:04.812Z,14.73
2019-02-17T07:15:33.804Z,15.57
2019-02-17T07:18:07.195Z,12.83
2019-02-17T07:20:42.198Z,13.10
2019-02-17T07:23:12.304Z,13.57
2019-02-17T07:25:41.282Z,14.53
2019-02-17T07:28:10.411Z,12.93
2019-02-17T07:30:44.306Z,13.73
2019-02-17T07:33:13.315Z,16.37
2019-02-17T07:35:49.708Z,15.03
2019-02-17T07:38:24.059Z,15.37
2019-02-17T07:41:13.501Z,13.67
2019-02-17T07:43:42.399Z,16.07
2019-02-17T07:46:18.669Z,16.20
2019-02-17T07:48:56.664Z,15.27
2019-02-17T07:51:25.650Z,15.00
2019-02-17T07:54:17.774Z,15.67
2019-02-17T07:56:53.979Z,13.60
2019-02-17T07:59:25.743Z,15.10
2019-02-17T08:02:00.428Z,14.57
2019-02-17T08:04:29.350Z,14.10
2019-02-17T08:07:00.524Z,14.43
2019-02-17T08:09:31.136Z,16.60
2019-02-17T08:12:07.725Z,16.00
2019-02-17T08:14:38.380Z,14.73
2019-02-17T08:17:07.307Z,14.97
2019-02-17T08:19:36.194Z,15.63
2019-02-17T08:22:06.066Z,15.53
2019-02-17T08:24:39.104Z,14.83
2019-02-17T08:27:08.451Z,15.47
2019-02-17T08:29:39.067Z,16.00
2019-02-17T08:32:11.402Z,16.57
2019-02-17T08:34:40.380Z,14.07
2019-02-17T08:37:09.818Z,15.73
2019-02-17T08:39:39.039Z,16.53
2019-02-17T08:42:08.189Z,17.03
2019-02-17T08:44:47.344Z,16.63
2019-02-17T08:47:19.404Z,17.30
2019-02-17T08:49:52.598Z,18.97
2019-02-17T08:52:21.676Z,20.53
2019-02-17T08:54:55.554Z,17.73
2019-02-17T08:57:24.475Z,20.33
2019-02-17T08:59:59.264Z,23.37
2019-02-17T09:02:36.158Z,21.07
2019-02-17T09:07:51.516Z,22.90
2019-02-17T09:10:20.520Z,23.97
2019-02-17T09:12:57.317Z,21.90
2019-02-17T09:15:40.807Z,22.87
2019-02-17T09:18:09.758Z,23.60
2019-02-17T09:20:38.759Z,24.63
2019-02-17T09:23:09.340Z,25.40
2019-02-17T09:28:26.152Z,24.07
2019-02-17T09:30:54.976Z,25.47
2019-02-17T09:33:35.628Z,23.80
2019-02-17T09:38:53.968Z,24.53
2019-02-17T09:44:19.403Z,24.17
2019-02-17T09:46:55.029Z,23.13
2019-02-17T09:49:25.530Z,24.13
2019-02-17T09:51:57.934Z,24.07
2019-02-17T09:54:26.866Z,23.77
2019-02-17T09:56:59.494Z,23.40
2019-02-17T09:59:32.000Z,21.90
2019-02-17T10:02:01.507Z,25.03
2019-02-17T10:04:31.858Z,22.10
2019-02-17T10:07:03.665Z,22.43
2019-02-17T10:09:59.896Z,21.40
2019-02-17T10:12:28.839Z,22.00
2019-02-17T10:14:59.422Z,21.17
2019-02-17T10:17:35.960Z,20.80
2019-02-17T10:20:14.293Z,20.53
2019-02-17T10:24:24.135Z,19.07
2019-02-17T10:25:19.578Z,22.50
2019-02-17T10:28:11.256Z,21.57
2019-02-17T10:31:22.216Z,21.13
2019-02-17T10:33:55.496Z,21.97
2019-02-17T10:36:27.868Z,20.93
2019-02-17T10:39:05.575Z,20.27
2019-02-17T10:41:34.794Z,18.87
2019-02-17T10:44:06.916Z,20.50
2019-02-17T10:46:39.749Z,17.73
2019-02-17T10:49:13.943Z,19.67
2019-02-17T10:51:47.258Z,19.43
2019-02-17T10:54:27.751Z,18.37
2019-02-17T10:59:45.529Z,19.37
2019-02-17T11:02:14.612Z,19.70
2019-02-17T11:04:43.545Z,17.97
2019-02-17T11:07:14.020Z,18.07
2019-02-17T11:09:42.860Z,17.53
2019-02-17T11:12:13.687Z,17.70
2019-02-17T11:14:45.077Z,17.47
2019-02-17T11:17:14.109Z,18.37
2019-02-17T11:22:22.961Z,16.07
2019-02-17T11:24:58.308Z,18.57
2019-02-17T11:27:27.261Z,18.53
2019-02-17T11:30:01.048Z,18.23
2019-02-17T11:32:32.132Z,17.53
2019-02-17T11:37:38.040Z,15.77
2019-02-17T11:40:09.066Z,17.47
2019-02-17T11:42:37.941Z,16.10
2019-02-17T11:45:11.593Z,16.80
2019-02-17T11:47:41.273Z,17.97
2019-02-17T11:50:20.068Z,16.27
2019-02-17T11:53:09.581Z,17.63
2019-02-17T11:55:45.972Z,16.47
2019-02-17T11:58:18.055Z,17.67
2019-02-17T12:01:12.459Z,15.77
2019-02-17T12:03:42.826Z,15.77
2019-02-17T12:06:12.541Z,15.47
2019-02-17T12:08:55.722Z,17.33
2019-02-17T12:11:26.096Z,16.27
2019-02-17T12:14:14.316Z,15.30
2019-02-17T12:16:43.235Z,16.67
2019-02-17T12:19:29.375Z,16.50
2019-02-17T12:22:12.646Z,14.77
2019-02-17T12:24:46.371Z,14.67
2019-02-17T12:27:38.411Z,15.80
2019-02-17T12:30:11.871Z,13.50
2019-02-17T12:32:40.811Z,14.63
2019-02-17T12:35:09.646Z,13.60
2019-02-17T12:37:39.111Z,14.40
2019-02-17T12:40:17.060Z,14.83
2019-02-17T12:42:51.937Z,13.83
2019-02-17T12:45:21.047Z,14.77
2019-02-17T12:47:57.423Z,14.10
2019-02-17T12:50:29.176Z,13.80
2019-02-17T12:52:58.108Z,14.37
2019-02-17T12:55:38.267Z,13.07
2019-02-17T12:58:10.913Z,13.27
2019-02-17T13:00:39.823Z,14.43
2019-02-17T13:03:12.722Z,15.53
2019-02-17T13:08:46.006Z,14.27
2019-02-17T13:11:14.898Z,15.33
2019-02-17T13:13:43.896Z,16.07
2019-02-17T13:16:21.249Z,19.23
2019-02-17T13:18:51.176Z,18.47
2019-02-17T13:21:20.049Z,16.77
2019-02-17T13:24:10.034Z,17.03
2019-02-17T13:26:40.975Z,16.50
2019-02-17T13:29:09.852Z,16.83
2019-02-17T13:31:38.864Z,17.83
2019-02-17T13:34:10.614Z,16.83
2019-02-17T13:36:39.508Z,15.70
2019-02-17T13:39:28.659Z,18.97
2019-02-17T13:42:02.396Z,16.47
2019-02-17T13:44:40.545Z,16.97
2019-02-17T13:47:09.366Z,16.03
2019-02-17T13:49:41.089Z,16.23
2019-02-17T13:52:13.051Z,14.87
2019-02-17T13:55:17.233Z,15.17
2019-02-17T13:57:46.287Z,17.07
2019-02-17T14:00:37.590Z,16.07
2019-02-17T14:03:15.513Z,15.77
2019-02-17T14:05:44.487Z,13.70
2019-02-17T14:08:31.823Z,14.90
2019-02-17T14:11:00.840Z,14.43
2019-02-17T14:13:35.848Z,12.93
2019-02-17T14:16:06.512Z,14.43
2019-02-17T14:18:36.328Z,13.73
2019-02-17T14:21:08.083Z,13.00
2019-02-17T14:23:38.140Z,16.17
2019-02-17T14:26:09.279Z,14.17
2019-02-17T14:31:23.774Z,12.00
2019-02-17T14:33:58.577Z,12.40
2019-02-17T14:36:30.290Z,16.00
2019-02-17T14:38:59.458Z,11.67
2019-02-17T14:41:28.619Z,13.03
2019-02-17T14:44:01.366Z,11.63
2019-02-17T14:46:35.979Z,12.63
2019-02-17T14:49:11.019Z,12.43
2019-02-17T14:51:40.854Z,11.67
2019-02-17T14:56:47.317Z,14.63
2019-02-17T14:59:16.686Z,13.03
2019-02-17T15:01:46.900Z,16.67
2019-02-17T15:04:17.960Z,14.40
2019-02-17T15:06:47.224Z,16.90
2019-02-17T15:09:17.010Z,12.43
2019-02-17T15:11:51.243Z,12.10
2019-02-17T15:14:23.916Z,14.13
2019-02-17T15:17:00.292Z,17.00
2019-02-17T15:25:20.768Z,12.53
2019-02-17T15:27:49.717Z,18.33
2019-02-17T15:30:18.553Z,11.43
2019-02-17T15:33:03.950Z,15.17
2019-02-17T15:35:29.601Z,14.67
2019-02-17T15:47:52.932Z,12.50
2019-02-17T15:50:21.754Z,11.53
2019-02-17T15:53:05.301Z,13.47
2019-02-17T15:55:34.966Z,13.87
2019-02-17T15:58:08.261Z,10.93
2019-02-17T16:00:35.215Z,12.20
2019-02-17T16:03:10.178Z,11.77
2019-02-17T16:05:41.553Z,11.73
2019-02-17T16:08:15.531Z,12.13
2019-02-17T16:10:44.703Z,11.37
2019-02-17T16:13:16.848Z,13.33
2019-02-17T16:15:53.534Z,11.63
2019-02-17T16:18:28.613Z,13.37
2019-02-17T16:21:16.552Z,17.17
2019-02-17T16:23:45.536Z,15.73
2019-02-17T16:26:14.786Z,19.87
2019-02-17T16:28:43.903Z,19.40
2019-02-17T16:31:12.875Z,13.17
2019-02-17T16:33:42.411Z,15.90
2019-02-17T16:36:27.599Z,13.97
2019-02-17T16:38:58.304Z,13.23
2019-02-17T16:41:31.583Z,14.30
2019-02-17T16:44:16.136Z,15.10
2019-02-17T16:46:45.273Z,12.27
2019-02-17T16:49:14.388Z,16.70
2019-02-17T16:51:43.315Z,14.43
2019-02-17T16:56:52.522Z,12.57
2019-02-17T16:59:52.334Z,14.17
2019-02-17T17:02:21.543Z,13.13
2019-02-17T17:04:50.858Z,15.47
2019-02-17T17:07:19.682Z,14.53
2019-02-17T17:09:50.542Z,17.07
2019-02-17T17:12:20.263Z,14.33
2019-02-17T17:14:58.316Z,14.67
2019-02-17T17:17:27.328Z,17.40
2019-02-17T17:22:37.447Z,15.77
2019-02-17T17:25:06.915Z,15.97
2019-02-17T17:27:35.948Z,15.60
2019-02-17T17:30:07.271Z,17.13
2019-02-17T17:36:04.781Z,14.63
2019-02-17T17:38:34.090Z,16.80
2019-02-17T17:41:08.848Z,18.40
2019-02-17T17:43:38.979Z,16.17
2019-02-17T17:46:16.338Z,17.57
2019-02-17T17:48:45.237Z,17.23
2019-02-17T17:53:50.294Z,19.17
2019-02-17T17:56:21.004Z,18.97
2019-02-17T17:58:56.607Z,19.30
2019-02-17T18:01:27.866Z,17.93
2019-02-17T18:03:58.343Z,16.67
2019-02-17T18:06:46.569Z,19.17
2019-02-17T18:09:15.577Z,18.30
2019-02-17T18:11:47.316Z,18.17
2019-02-17T18:14:16.390Z,17.33
2019-02-17T18:16:51.126Z,17.40
2019-02-17T18:19:24.571Z,18.87
2019-02-17T18:21:53.770Z,17.23
2019-02-17T18:24:31.060Z,18.10
2019-02-17T18:27:00.060Z,16.27
2019-02-17T18:29:28.920Z,20.27
2019-02-17T18:35:00.231Z,19.57
2019-02-17T18:37:31.327Z,18.40
2019-02-17T18:40:24.374Z,17.63
2019-02-17T18:43:12.243Z,19.60
2019-02-17T18:45:34.322Z,18.33
2019-02-17T18:48:04.890Z,19.37
2019-02-17T18:53:48.025Z,19.83
2019-02-17T18:56:22.368Z,16.90
2019-02-17T19:01:27.170Z,18.30
2019-02-17T19:35:04.497Z,16.83
2019-02-17T19:37:39.412Z,16.27
2019-02-17T19:40:23.869Z,18.27
2019-02-17T19:42:51.205Z,17.80
2019-02-17T20:11:18.030Z,22.73
2019-02-17T20:13:49.487Z,21.70
2019-02-17T20:16:18.619Z,24.00
2019-02-17T20:18:50.991Z,22.07
2019-02-17T20:21:20.007Z,23.57
2019-02-17T20:23:51.677Z,22.80
2019-02-17T20:26:22.243Z,23.33
2019-02-17T20:28:57.421Z,23.83
2019-02-17T20:31:26.553Z,26.63
2019-02-17T20:33:58.601Z,26.40
2019-02-17T20:36:27.586Z,27.80
2019-02-17T20:38:56.489Z,27.77
2019-02-17T20:41:27.259Z,26.60
2019-02-17T20:44:04.194Z,27.10
2019-02-17T20:46:34.689Z,29.27
2019-02-17T20:49:04.067Z,27.87
2019-02-17T20:51:40.622Z,27.83
2019-02-17T20:54:11.238Z,26.07
2019-02-17T20:56:41.450Z,30.70
2019-02-17T20:59:13.855Z,29.60
2019-02-17T21:01:44.588Z,31.80
2019-02-17T21:04:17.904Z,29.50
2019-02-17T21:06:44.361Z,31.43
2019-02-17T21:09:24.325Z,30.57
2019-02-17T21:11:54.163Z,30.80
2019-02-17T21:14:29.710Z,31.47
2019-02-17T21:16:58.740Z,32.53
2019-02-17T21:19:31.083Z,34.23
2019-02-17T21:22:00.221Z,34.47
2019-02-17T21:24:30.315Z,34.53
2019-02-17T21:27:13.171Z,37.67
2019-02-17T21:29:42.411Z,37.07
2019-02-17T21:32:12.543Z,35.87
2019-02-17T21:38:00.567Z,40.90
2019-02-17T21:40:40.623Z,40.03
2019-02-17T21:43:09.579Z,42.03
2019-02-17T21:45:49.352Z,43.23
2019-02-17T21:48:19.054Z,41.97
2019-02-17T21:50:48.086Z,41.23
2019-02-17T21:53:20.812Z,41.90
2019-02-17T21:55:51.134Z,42.13
2019-02-17T21:58:29.209Z,42.17
2019-02-17T22:00:58.475Z,40.83
2019-02-17T22:03:40.419Z,42.53
2019-02-17T22:06:37.670Z,43.47
2019-02-17T22:09:08.946Z,42.20
2019-02-17T22:11:42.340Z,42.40
2019-02-17T22:14:18.353Z,42.07
2019-02-17T22:16:50.559Z,44.37
2019-02-17T22:19:20.978Z,45.37
2019-02-17T22:21:50.004Z,40.83
2019-02-17T22:24:19.075Z,42.70
2019-02-17T22:26:48.003Z,44.83
2019-02-17T22:29:16.944Z,42.03
2019-02-17T22:31:46.468Z,42.03
2019-02-17T22:34:15.604Z,47.87
2019-02-17T22:36:44.758Z,46.67
2019-02-17T22:39:13.955Z,43.60
2019-02-17T22:41:43.156Z,45.57
2019-02-17T22:44:12.156Z,43.17
2019-02-17T22:46:40.980Z,43.77
2019-02-17T22:49:09.956Z,43.80
2019-02-17T22:51:38.850Z,42.07
2019-02-17T22:54:07.890Z,41.33
2019-02-17T22:56:36.921Z,42.87
2019-02-17T22:59:05.820Z,41.70
2019-02-17T23:01:35.504Z,41.67
2019-02-17T23:04:04.407Z,43.93
2019-02-17T23:06:33.252Z,42.40
2019-02-17T23:09:02.215Z,41.10
2019-02-17T23:11:31.488Z,42.40
2019-02-17T23:14:00.469Z,41.27
2019-02-17T23:16:29.554Z,42.73
2019-02-17T23:21:34.359Z,40.93
2019-02-17T23:24:08.923Z,42.27
2019-02-17T23:26:38.106Z,40.90
2019-02-17T23:29:06.977Z,39.97
2019-02-17T23:31:35.915Z,41.53
2019-02-17T23:34:12.587Z,41.37
2019-02-17T23:37:04.065Z,41.17
2019-02-17T23:39:35.257Z,40.63
2019-02-17T23:42:15.154Z,40.57
2019-02-17T23:44:43.988Z,40.47
2019-02-17T23:50:09.503Z,41.10
2019-02-17T23:52:44.886Z,38.63
2019-02-17T23:55:13.802Z,38.30
2019-02-17T23:57:42.963Z,39.03
